Time;durP1;ratioP1;P1;durP2;ratioP2;P2;SDS_P1;SDS_P2;PMS_P1;PMS_P2;Temp;Humidity;BMP_temperature;BMP_pressure;BME280_temperature;BME280_humidity;BME280_pressure;Samples;Min_cycle;Max_cycle;Signal;HPM_P1;HPM_P2
2020/12/30 00:00:12;0.00;0.00;0.62;0.00;0.00;0.62;2.13;1.53;;;19.90;28.20;;;;;;2277525;61;20375;-63
2020/12/30 00:02:57;0.00;0.00;0.62;0.00;0.00;0.62;1.50;1.20;;;19.90;28.30;;;;;;2277183;61;20354;-64
2020/12/30 00:05:42;0.00;0.00;0.62;0.00;0.00;0.62;1.63;1.33;;;19.90;28.80;;;;;;2277529;61;20353;-62
2020/12/30 00:08:27;0.00;0.00;0.62;0.00;0.00;0.62;2.07;1.47;;;19.90;28.30;;;;;;2277550;61;20380;-62
2020/12/30 00:11:12;0.00;0.00;0.62;0.00;0.00;0.62;1.93;1.30;;;19.90;28.30;;;;;;2277137;60;20481;-62
2020/12/30 00:13:58;0.00;0.00;0.62;0.00;0.00;0.62;1.70;1.20;;;19.90;28.30;;;;;;2278374;61;20355;-64
2020/12/30 00:16:42;0.00;0.00;0.62;0.00;0.00;0.62;2.30;1.20;;;19.90;28.30;;;;;;2278379;61;20355;-63
2020/12/30 00:19:27;0.00;0.00;0.62;0.00;0.00;0.62;1.60;1.10;;;19.90;28.30;;;;;;2277659;61;20379;-62
2020/12/30 00:22:11;0.00;0.00;0.62;0.00;0.00;0.62;1.70;1.40;;;19.90;28.80;;;;;;2278352;61;20435;-61
2020/12/30 00:24:56;0.00;0.00;0.62;0.00;0.00;0.62;1.97;1.30;;;19.90;28.30;;;;;;2278089;61;20587;-63
2020/12/30 00:27:43;0.00;0.00;0.62;0.00;0.00;0.62;1.70;1.30;;;19.90;28.30;;;;;;2277972;61;20354;-63
2020/12/30 00:30:28;0.00;0.00;0.62;0.00;0.00;0.62;2.33;1.17;;;19.90;28.30;;;;;;2277942;61;20797;-62
2020/12/30 00:33:13;0.00;0.00;0.62;0.00;0.00;0.62;1.40;1.03;;;19.90;28.30;;;;;;2277679;61;20371;-64
2020/12/30 00:35:58;0.00;0.00;0.62;0.00;0.00;0.62;1.80;1.20;;;19.90;28.30;;;;;;2278257;61;20402;-63
2020/12/30 00:38:43;0.00;0.00;0.62;0.00;0.00;0.62;1.37;0.97;;;19.90;28.30;;;;;;2278196;61;20359;-64
2020/12/30 00:41:28;0.00;0.00;0.62;0.00;0.00;0.62;1.63;1.23;;;19.90;28.30;;;;;;2277696;61;20370;-61
2020/12/30 00:44:13;0.00;0.00;0.62;0.00;0.00;0.62;1.50;0.90;;;19.90;28.30;;;;;;2278297;61;20358;-64
2020/12/30 00:47:00;0.00;0.00;0.62;0.00;0.00;0.62;2.27;1.43;;;19.90;28.30;;;;;;2278032;61;20351;-62
2020/12/30 00:49:45;0.00;0.00;0.62;0.00;0.00;0.62;1.50;1.00;;;19.90;28.30;;;;;;2277443;61;20812;-63
2020/12/30 00:52:29;0.00;0.00;0.62;0.00;0.00;0.62;1.40;0.83;;;19.90;28.30;;;;;;2278267;61;20435;-64
2020/12/30 00:55:17;0.00;0.00;0.62;0.00;0.00;0.62;2.60;1.37;;;19.90;28.30;;;;;;2277277;61;20784;-62
2020/12/30 00:58:14;0.00;0.00;0.62;0.00;0.00;0.62;1.47;1.00;;;19.90;28.40;;;;;;2277742;61;20346;-63
2020/12/30 01:01:03;0.00;0.00;0.62;0.00;0.00;0.62;1.63;1.13;;;19.90;28.40;;;;;;2277795;61;20378;-64
2020/12/30 01:03:54;0.00;0.00;0.62;0.00;0.00;0.62;1.87;1.13;;;19.90;28.40;;;;;;2277879;61;20440;-65
2020/12/30 01:06:39;0.00;0.00;0.62;0.00;0.00;0.62;1.60;1.03;;;20.00;28.50;;;;;;2278479;61;20444;-66
2020/12/30 01:09:26;0.00;0.00;0.62;0.00;0.00;0.62;1.50;1.20;;;19.90;28.40;;;;;;2277754;61;20355;-67
2020/12/30 01:12:11;0.00;0.00;0.62;0.00;0.00;0.62;1.40;0.87;;;19.90;28.40;;;;;;2277932;61;20651;-64
2020/12/30 01:14:57;0.00;0.00;0.62;0.00;0.00;0.62;1.43;1.07;;;20.00;28.50;;;;;;2278180;61;20604;-66
2020/12/30 01:17:42;0.00;0.00;0.62;0.00;0.00;0.62;1.80;1.13;;;20.00;28.50;;;;;;2277687;61;20610;-65
2020/12/30 01:20:27;0.00;0.00;0.62;0.00;0.00;0.62;3.97;1.00;;;20.00;28.50;;;;;;2278189;60;20395;-66
2020/12/30 01:23:12;0.00;0.00;0.62;0.00;0.00;0.62;1.50;1.27;;;20.00;28.50;;;;;;2278091;60;20466;-63
2020/12/30 01:25:56;0.00;0.00;0.62;0.00;0.00;0.62;1.80;1.30;;;20.00;28.50;;;;;;2277617;61;20397;-65
2020/12/30 01:28:42;0.00;0.00;0.62;0.00;0.00;0.62;2.37;1.03;;;20.00;28.50;;;;;;2277786;60;20427;-68
2020/12/30 01:31:27;0.00;0.00;0.62;0.00;0.00;0.62;2.37;1.40;;;20.00;28.50;;;;;;2277674;61;20371;-65
2020/12/30 01:34:12;0.00;0.00;0.62;0.00;0.00;0.62;2.70;2.47;;;20.00;28.20;;;;;;2278095;61;20404;-64
2020/12/30 01:36:57;0.00;0.00;0.62;0.00;0.00;0.62;2.30;2.10;;;20.00;27.70;;;;;;2278182;61;20359;-68
2020/12/30 01:39:42;0.00;0.00;0.62;0.00;0.00;0.62;2.63;1.90;;;19.90;27.30;;;;;;2277698;61;20489;-65
2020/12/30 01:42:26;0.00;0.00;0.62;0.00;0.00;0.62;2.77;2.40;;;19.90;27.30;;;;;;2278193;61;20398;-66
2020/12/30 01:45:11;0.00;0.00;0.62;0.00;0.00;0.62;2.40;1.90;;;19.90;27.30;;;;;;2278184;61;20435;-64
2020/12/30 01:47:56;0.00;0.00;0.62;0.00;0.00;0.62;2.40;2.03;;;19.80;27.30;;;;;;2277823;61;20375;-67
2020/12/30 01:50:41;0.00;0.00;0.62;0.00;0.00;0.62;2.10;1.77;;;19.80;27.30;;;;;;2278108;61;20400;-65
2020/12/30 01:53:27;0.00;0.00;0.62;0.00;0.00;0.62;2.93;1.97;;;19.80;27.40;;;;;;2278011;61;20369;-64
2020/12/30 01:56:15;0.00;0.00;0.62;0.00;0.00;0.62;2.87;2.60;;;19.80;27.40;;;;;;2278104;61;20379;-66
2020/12/30 01:59:04;0.00;0.00;0.62;0.00;0.00;0.62;3.60;2.50;;;19.80;27.40;;;;;;2277593;61;20362;-67
2020/12/30 02:01:53;0.00;0.00;0.62;0.00;0.00;0.62;3.00;2.47;;;19.70;27.20;;;;;;2277842;61;20366;-64
2020/12/30 02:04:44;0.00;0.00;0.62;0.00;0.00;0.62;2.73;2.47;;;19.70;27.10;;;;;;2278072;61;20392;-65
2020/12/30 02:07:29;0.00;0.00;0.62;0.00;0.00;0.62;3.27;2.77;;;19.60;26.90;;;;;;2277631;61;20389;-65
2020/12/30 02:10:16;0.00;0.00;0.62;0.00;0.00;0.62;3.63;3.20;;;19.60;26.80;;;;;;2277686;61;20375;-63
2020/12/30 02:13:00;0.00;0.00;0.62;0.00;0.00;0.62;3.90;3.00;;;19.60;26.60;;;;;;2277999;61;20747;-66
2020/12/30 02:15:45;0.00;0.00;0.62;0.00;0.00;0.62;3.40;3.00;;;19.50;26.30;;;;;;2277695;61;20375;-65
2020/12/30 02:18:29;0.00;0.00;0.62;0.00;0.00;0.62;3.50;2.60;;;19.50;26.30;;;;;;2277956;61;20362;-65
2020/12/30 02:21:14;0.00;0.00;0.62;0.00;0.00;0.62;3.87;3.37;;;19.40;26.20;;;;;;2277989;61;20417;-66
2020/12/30 02:23:59;0.00;0.00;0.62;0.00;0.00;0.62;4.90;3.00;;;19.40;26.20;;;;;;2277737;61;20449;-64
2020/12/30 02:26:44;0.00;0.00;0.62;0.00;0.00;0.62;3.23;2.80;;;19.40;26.20;;;;;;2277978;61;20461;-64
2020/12/30 02:29:30;0.00;0.00;0.62;0.00;0.00;0.62;3.40;3.10;;;19.30;26.10;;;;;;2277817;61;20363;-65
2020/12/30 02:32:15;0.00;0.00;0.62;0.00;0.00;0.62;3.73;2.90;;;19.30;26.10;;;;;;2277413;61;20708;-67
2020/12/30 02:34:59;0.00;0.00;0.62;0.00;0.00;0.62;3.97;3.07;;;19.20;25.90;;;;;;2277719;60;20413;-65
2020/12/30 02:37:44;0.00;0.00;0.62;0.00;0.00;0.62;3.80;2.77;;;19.20;26.00;;;;;;2277762;61;20427;-64
2020/12/30 02:40:28;0.00;0.00;0.62;0.00;0.00;0.62;3.27;2.90;;;19.10;26.00;;;;;;2277970;61;20382;-64
2020/12/30 02:43:14;0.00;0.00;0.62;0.00;0.00;0.62;3.10;2.57;;;19.10;26.00;;;;;;2277995;61;20417;-67
2020/12/30 02:45:59;0.00;0.00;0.62;0.00;0.00;0.62;4.10;3.30;;;19.00;25.90;;;;;;2277322;61;20429;-66
2020/12/30 02:48:44;0.00;0.00;0.62;0.00;0.00;0.62;4.27;3.30;;;19.00;25.90;;;;;;2277825;60;20653;-64
2020/12/30 02:51:29;0.00;0.00;0.62;0.00;0.00;0.62;4.00;3.60;;;18.90;25.80;;;;;;2277924;60;20417;-64
2020/12/30 02:54:13;0.00;0.00;0.62;0.00;0.00;0.62;5.13;3.70;;;18.90;25.80;;;;;;2277309;61;20574;-65
2020/12/30 02:56:57;0.00;0.00;0.62;0.00;0.00;0.62;3.90;3.50;;;18.80;25.70;;;;;;2277953;61;20354;-66
2020/12/30 02:59:43;0.00;0.00;0.62;0.00;0.00;0.62;3.80;2.70;;;18.80;25.80;;;;;;2277751;61;20400;-66
2020/12/30 03:02:27;0.00;0.00;0.62;0.00;0.00;0.62;4.20;3.40;;;18.70;25.70;;;;;;2277862;61;20381;-67
2020/12/30 03:05:12;0.00;0.00;0.62;0.00;0.00;0.62;5.30;3.97;;;18.70;25.70;;;;;;2277946;61;20388;-64
2020/12/30 03:07:57;0.00;0.00;0.62;0.00;0.00;0.62;4.70;3.30;;;18.60;25.60;;;;;;2277526;61;20370;-67
2020/12/30 03:10:41;0.00;0.00;0.62;0.00;0.00;0.62;3.90;3.50;;;18.60;25.60;;;;;;2277800;61;20374;-64
2020/12/30 03:13:26;0.00;0.00;0.62;0.00;0.00;0.62;5.90;3.87;;;18.60;26.20;;;;;;2277897;60;20393;-64
2020/12/30 03:16:12;0.00;0.00;0.62;0.00;0.00;0.62;4.07;3.40;;;18.50;25.50;;;;;;2277515;61;20599;-67
2020/12/30 03:18:56;0.00;0.00;0.62;0.00;0.00;0.62;6.10;3.73;;;18.50;25.50;;;;;;2277815;61;20624;-63
2020/12/30 03:21:41;0.00;0.00;0.62;0.00;0.00;0.62;3.63;3.20;;;18.50;25.50;;;;;;2277855;61;20575;-65
2020/12/30 03:24:26;0.00;0.00;0.62;0.00;0.00;0.62;4.70;3.27;;;18.50;25.50;;;;;;2277701;61;20409;-64
2020/12/30 03:27:10;0.00;0.00;0.62;0.00;0.00;0.62;3.03;2.73;;;18.40;25.50;;;;;;2277862;61;20427;-64
2020/12/30 03:29:55;0.00;0.00;0.62;0.00;0.00;0.62;4.70;3.67;;;18.40;25.50;;;;;;2277425;61;20386;-67
2020/12/30 03:32:40;0.00;0.00;0.62;0.00;0.00;0.62;3.90;3.40;;;18.40;25.50;;;;;;2277867;61;20396;-65
2020/12/30 03:35:25;0.00;0.00;0.62;0.00;0.00;0.62;4.67;3.23;;;18.30;25.40;;;;;;2277826;61;20391;-64
2020/12/30 03:38:09;0.00;0.00;0.62;0.00;0.00;0.62;5.70;3.20;;;18.30;25.40;;;;;;2277429;61;20351;-65
2020/12/30 03:40:54;0.00;0.00;0.62;0.00;0.00;0.62;3.13;2.60;;;18.30;25.40;;;;;;2277797;61;20410;-64
2020/12/30 03:43:38;0.00;0.00;0.62;0.00;0.00;0.62;4.17;3.77;;;18.20;25.30;;;;;;2277838;61;20397;-65
2020/12/30 03:46:23;0.00;0.00;0.62;0.00;0.00;0.62;4.37;3.47;;;18.20;25.40;;;;;;2278028;60;20616;-67
2020/12/30 03:49:09;0.00;0.00;0.62;0.00;0.00;0.62;4.00;3.30;;;18.20;25.50;;;;;;2278428;61;20351;-67
2020/12/30 03:51:53;0.00;0.00;0.62;0.00;0.00;0.62;6.20;3.57;;;18.10;25.50;;;;;;2278246;61;20359;-64
2020/12/30 03:54:38;0.00;0.00;0.62;0.00;0.00;0.62;4.43;3.13;;;18.10;25.40;;;;;;2278518;61;20382;-66
2020/12/30 03:57:23;0.00;0.00;0.62;0.00;0.00;0.62;5.10;3.80;;;18.10;25.40;;;;;;2278549;61;20359;-63
2020/12/30 04:00:08;0.00;0.00;0.62;0.00;0.00;0.62;3.60;3.30;;;18.10;25.30;;;;;;2278039;60;20726;-64
2020/12/30 04:02:57;0.00;0.00;0.62;0.00;0.00;0.62;6.03;3.13;;;18.10;25.40;;;;;;2278527;61;20355;-64
2020/12/30 04:05:42;0.00;0.00;0.62;0.00;0.00;0.62;3.40;3.10;;;18.00;25.40;;;;;;2278450;61;20388;-65
2020/12/30 04:08:27;0.00;0.00;0.62;0.00;0.00;0.62;4.67;3.70;;;18.00;25.20;;;;;;2278173;61;20362;-65
2020/12/30 04:11:11;0.00;0.00;0.62;0.00;0.00;0.62;4.70;3.43;;;17.90;25.20;;;;;;2278427;61;20370;-64
2020/12/30 04:13:56;0.00;0.00;0.62;0.00;0.00;0.62;5.47;3.80;;;17.90;25.30;;;;;;2278230;61;20492;-68
2020/12/30 04:16:41;0.00;0.00;0.62;0.00;0.00;0.62;4.80;3.60;;;17.90;25.40;;;;;;2278439;61;20378;-64
2020/12/30 04:19:25;0.00;0.00;0.62;0.00;0.00;0.62;4.93;3.10;;;17.90;25.40;;;;;;2278313;61;20370;-68
2020/12/30 04:22:11;0.00;0.00;0.62;0.00;0.00;0.62;4.50;3.50;;;17.80;25.90;;;;;;2278184;61;20354;-62
2020/12/30 04:24:55;0.00;0.00;0.62;0.00;0.00;0.62;4.60;3.67;;;17.80;25.40;;;;;;2278425;61;20362;-65
2020/12/30 04:27:40;0.00;0.00;0.62;0.00;0.00;0.62;4.00;3.43;;;17.80;25.40;;;;;;2278392;61;20350;-66
2020/12/30 04:30:24;0.00;0.00;0.62;0.00;0.00;0.62;4.00;3.60;;;17.80;25.40;;;;;;2278107;61;20627;-67
2020/12/30 04:33:09;0.00;0.00;0.62;0.00;0.00;0.62;4.83;3.43;;;17.70;25.30;;;;;;2278432;61;20350;-63
2020/12/30 04:35:54;0.00;0.00;0.62;0.00;0.00;0.62;5.83;3.73;;;17.70;25.30;;;;;;2278488;61;20601;-63
2020/12/30 04:38:40;0.00;0.00;0.62;0.00;0.00;0.62;4.20;3.00;;;17.70;25.30;;;;;;2277937;61;20465;-68
2020/12/30 04:41:32;0.00;0.00;0.62;0.00;0.00;0.62;4.53;3.20;;;17.70;25.30;;;;;;2278272;61;20485;-65
2020/12/30 04:44:18;0.00;0.00;0.62;0.00;0.00;0.62;7.20;3.27;;;17.70;25.30;;;;;;2278123;61;20405;-64
2020/12/30 04:47:03;0.00;0.00;0.62;0.00;0.00;0.62;4.17;3.80;;;17.60;25.80;;;;;;2278399;61;20367;-67
2020/12/30 04:49:48;0.00;0.00;0.62;0.00;0.00;0.62;4.17;3.30;;;17.60;25.30;;;;;;2278114;61;20374;-66
2020/12/30 04:52:34;0.00;0.00;0.62;0.00;0.00;0.62;5.20;3.10;;;17.60;25.30;;;;;;2278122;61;20377;-66
2020/12/30 04:55:24;0.00;0.00;0.62;0.00;0.00;0.62;3.10;2.77;;;17.50;25.30;;;;;;2278285;60;20455;-64
2020/12/30 04:58:09;0.00;0.00;0.62;0.00;0.00;0.62;4.30;2.87;;;17.50;25.30;;;;;;2278007;60;20409;-66
2020/12/30 05:00:54;0.00;0.00;0.62;0.00;0.00;0.62;4.27;3.53;;;17.50;25.40;;;;;;2278264;61;20411;-66
2020/12/30 05:03:46;0.00;0.00;0.62;0.00;0.00;0.62;3.27;2.83;;;17.50;25.40;;;;;;2278251;61;20773;-68
2020/12/30 05:06:33;0.00;0.00;0.62;0.00;0.00;0.62;3.80;2.93;;;17.40;25.50;;;;;;2278086;61;20699;-64
2020/12/30 05:09:19;0.00;0.00;0.62;0.00;0.00;0.62;3.50;3.20;;;17.40;25.50;;;;;;2278096;61;20363;-66
2020/12/30 05:12:12;0.00;0.00;0.62;0.00;0.00;0.62;4.63;3.43;;;17.40;25.60;;;;;;2277813;61;20363;-64
2020/12/30 05:14:56;0.00;0.00;0.62;0.00;0.00;0.62;3.00;2.30;;;17.40;25.50;;;;;;2278042;61;20367;-65
2020/12/30 05:17:41;0.00;0.00;0.62;0.00;0.00;0.62;4.37;3.30;;;17.40;25.60;;;;;;2278196;60;20351;-64
2020/12/30 05:20:35;0.00;0.00;0.62;0.00;0.00;0.62;3.93;3.07;;;17.40;25.50;;;;;;2278089;61;20394;-63
2020/12/30 05:23:19;0.00;0.00;0.62;0.00;0.00;0.62;3.80;2.80;;;17.40;25.60;;;;;;2278207;61;20350;-63
2020/12/30 05:26:05;0.00;0.00;0.62;0.00;0.00;0.62;3.77;3.23;;;17.40;25.60;;;;;;2278196;61;20350;-65
2020/12/30 05:28:52;0.00;0.00;0.62;0.00;0.00;0.62;4.67;3.27;;;17.30;25.60;;;;;;2277906;61;20465;-63
2020/12/30 05:31:39;0.00;0.00;0.62;0.00;0.00;0.62;4.47;3.30;;;17.30;25.60;;;;;;2278310;61;20379;-63
2020/12/30 05:34:24;0.00;0.00;0.62;0.00;0.00;0.62;4.40;2.60;;;17.30;25.60;;;;;;2278348;61;20711;-66
2020/12/30 05:37:11;0.00;0.00;0.62;0.00;0.00;0.62;3.20;2.70;;;17.30;26.20;;;;;;2278174;61;20400;-64
2020/12/30 05:39:56;0.00;0.00;0.62;0.00;0.00;0.62;3.10;2.80;;;17.30;26.20;;;;;;2278093;61;20370;-63
2020/12/30 05:42:41;0.00;0.00;0.62;0.00;0.00;0.62;6.60;3.27;;;17.30;25.80;;;;;;2278212;61;20588;-63
2020/12/30 05:45:27;0.00;0.00;0.62;0.00;0.00;0.62;3.17;2.50;;;17.30;25.70;;;;;;2278334;61;20385;-63
2020/12/30 05:48:12;0.00;0.00;0.62;0.00;0.00;0.62;3.80;3.30;;;17.30;25.70;;;;;;2278184;61;20370;-65
2020/12/30 05:50:58;0.00;0.00;0.62;0.00;0.00;0.62;3.60;3.00;;;17.30;25.70;;;;;;2277993;61;20377;-65
2020/12/30 05:53:43;0.00;0.00;0.62;0.00;0.00;0.62;4.37;2.37;;;17.30;25.70;;;;;;2278281;60;20460;-65
2020/12/30 05:56:29;0.00;0.00;0.62;0.00;0.00;0.62;3.40;2.27;;;17.30;25.70;;;;;;2278244;61;20601;-62
2020/12/30 05:59:15;0.00;0.00;0.62;0.00;0.00;0.62;3.40;2.90;;;17.30;25.80;;;;;;2277933;60;20351;-62
2020/12/30 06:02:01;0.00;0.00;0.62;0.00;0.00;0.62;3.07;2.70;;;17.30;25.80;;;;;;2278281;61;20355;-64
2020/12/30 06:04:46;0.00;0.00;0.62;0.00;0.00;0.62;2.67;2.23;;;17.30;25.80;;;;;;2278262;61;20363;-66
2020/12/30 06:07:36;0.00;0.00;0.62;0.00;0.00;0.62;5.10;3.40;;;17.30;25.80;;;;;;2278238;61;20351;-64
2020/12/30 06:10:22;0.00;0.00;0.62;0.00;0.00;0.62;5.60;3.33;;;17.30;25.80;;;;;;2278153;61;20370;-65
2020/12/30 06:13:09;0.00;0.00;0.62;0.00;0.00;0.62;2.70;2.40;;;17.30;25.70;;;;;;2277576;61;20363;-62
2020/12/30 06:16:01;0.00;0.00;0.62;0.00;0.00;0.62;2.93;2.67;;;17.20;25.60;;;;;;2278230;61;20429;-65
2020/12/30 06:18:48;0.00;0.00;0.62;0.00;0.00;0.62;4.00;3.10;;;17.30;25.70;;;;;;2278153;61;20347;-65
2020/12/30 06:21:33;0.00;0.00;0.62;0.00;0.00;0.62;3.70;2.73;;;17.30;25.70;;;;;;2277846;61;20596;-65
2020/12/30 06:24:18;0.00;0.00;0.62;0.00;0.00;0.62;4.47;2.70;;;17.30;25.60;;;;;;2278217;61;20362;-66
2020/12/30 06:27:03;0.00;0.00;0.62;0.00;0.00;0.62;3.20;2.67;;;17.20;25.70;;;;;;2278206;61;20370;-65
2020/12/30 06:29:51;0.00;0.00;0.62;0.00;0.00;0.62;6.00;2.60;;;17.20;25.70;;;;;;2277618;61;20424;-67
2020/12/30 06:32:35;0.00;0.00;0.62;0.00;0.00;0.62;3.00;2.40;;;17.20;25.80;;;;;;2278182;61;20355;-62
2020/12/30 06:35:30;0.00;0.00;0.62;0.00;0.00;0.62;3.20;2.40;;;17.20;25.80;;;;;;2277868;61;20387;-62
2020/12/30 06:38:19;0.00;0.00;0.62;0.00;0.00;0.62;2.53;2.30;;;17.20;25.80;;;;;;2277647;61;20379;-67
2020/12/30 06:41:06;0.00;0.00;0.62;0.00;0.00;0.62;3.43;2.30;;;17.30;25.90;;;;;;2278101;61;20375;-66
2020/12/30 06:43:51;0.00;0.00;0.62;0.00;0.00;0.62;2.80;2.50;;;17.30;25.90;;;;;;2277922;61;20377;-66
2020/12/30 06:46:36;0.00;0.00;0.62;0.00;0.00;0.62;3.40;2.53;;;17.30;25.90;;;;;;2278108;61;20347;-62
2020/12/30 06:49:20;0.00;0.00;0.62;0.00;0.00;0.62;3.07;2.77;;;17.30;25.90;;;;;;2277678;61;20359;-65
2020/12/30 06:52:27;0.00;0.00;0.62;0.00;0.00;0.62;4.10;3.23;;;17.30;25.90;;;;;;2278146;61;20570;-63
2020/12/30 06:55:12;0.00;0.00;0.62;0.00;0.00;0.62;9.73;3.00;;;17.30;25.50;;;;;;2278079;61;20754;-62
2020/12/30 06:57:58;0.00;0.00;0.62;0.00;0.00;0.62;3.43;2.67;;;17.20;25.60;;;;;;2273036;56;20667;-61
2020/12/30 07:00:42;0.00;0.00;0.62;0.00;0.00;0.62;3.13;2.57;;;17.20;25.80;;;;;;2265865;61;20381;-60
2020/12/30 07:03:32;0.00;0.00;0.62;0.00;0.00;0.62;3.00;2.43;;;17.20;25.90;;;;;;2262746;61;20577;-61
2020/12/30 07:06:34;0.00;0.00;0.62;0.00;0.00;0.62;2.93;2.10;;;17.20;26.00;;;;;;2265773;61;20362;-62
2020/12/30 07:09:29;0.00;0.00;0.62;0.00;0.00;0.62;2.13;1.93;;;17.30;26.20;;;;;;2265759;61;20616;-62
2020/12/30 07:12:13;0.00;0.00;0.62;0.00;0.00;0.62;3.07;2.00;;;17.30;26.20;;;;;;2265679;61;20385;-65
2020/12/30 07:14:58;0.00;0.00;0.62;0.00;0.00;0.62;3.40;1.93;;;17.30;26.30;;;;;;2265876;61;20354;-63
2020/12/30 07:17:43;0.00;0.00;0.62;0.00;0.00;0.62;6.77;1.97;;;17.30;26.30;;;;;;2265910;61;20745;-63
2020/12/30 07:20:28;0.00;0.00;0.62;0.00;0.00;0.62;2.93;1.83;;;17.40;26.40;;;;;;2265533;61;20392;-62
2020/12/30 07:23:15;0.00;0.00;0.62;0.00;0.00;0.62;1.77;1.30;;;17.40;26.50;;;;;;2265863;61;20365;-63
2020/12/30 07:26:01;0.00;0.00;0.62;0.00;0.00;0.62;2.73;1.50;;;17.40;26.50;;;;;;2265855;61;20349;-62
2020/12/30 07:28:47;0.00;0.00;0.62;0.00;0.00;0.62;2.13;1.53;;;17.50;26.60;;;;;;2265774;61;20362;-60
2020/12/30 07:31:35;0.00;0.00;0.62;0.00;0.00;0.62;1.97;1.70;;;17.50;26.50;;;;;;2265635;61;20408;-61
2020/12/30 07:34:23;0.00;0.00;0.62;0.00;0.00;0.62;2.47;1.73;;;17.50;26.50;;;;;;2262444;61;20747;-61
2020/12/30 07:37:09;0.00;0.00;0.62;0.00;0.00;0.62;2.13;1.50;;;17.60;26.70;;;;;;2265854;61;20608;-61
2020/12/30 07:39:54;0.00;0.00;0.62;0.00;0.00;0.62;1.87;1.33;;;17.60;26.60;;;;;;2265775;61;20384;-63
2020/12/30 07:42:40;0.00;0.00;0.62;0.00;0.00;0.62;2.20;1.63;;;17.60;26.60;;;;;;2265611;61;20360;-61
2020/12/30 07:45:24;0.00;0.00;0.62;0.00;0.00;0.62;1.87;1.40;;;17.60;26.70;;;;;;2265909;61;20362;-61
2020/12/30 07:48:09;0.00;0.00;0.62;0.00;0.00;0.62;2.07;1.40;;;17.70;26.70;;;;;;2265715;61;20724;-61
2020/12/30 07:50:53;0.00;0.00;0.62;0.00;0.00;0.62;1.83;1.40;;;17.70;26.70;;;;;;2265654;61;20377;-61
2020/12/30 07:53:38;0.00;0.00;0.62;0.00;0.00;0.62;3.10;1.50;;;17.70;26.70;;;;;;2265751;61;20404;-60
2020/12/30 07:56:26;0.00;0.00;0.62;0.00;0.00;0.62;2.00;1.27;;;17.80;26.80;;;;;;2265542;61;20393;-62
2020/12/30 07:59:19;0.00;0.00;0.62;0.00;0.00;0.62;2.03;1.67;;;17.80;26.80;;;;;;2262575;61;20768;-62
2020/12/30 08:02:06;0.00;0.00;0.62;0.00;0.00;0.62;3.17;1.20;;;17.80;26.80;;;;;;2265733;61;20492;-62
2020/12/30 08:05:00;0.00;0.00;0.62;0.00;0.00;0.62;2.23;1.47;;;17.80;26.80;;;;;;2265541;61;20357;-61
2020/12/30 08:07:45;0.00;0.00;0.62;0.00;0.00;0.62;1.60;1.20;;;17.90;26.90;;;;;;2265765;61;20615;-62
2020/12/30 08:10:29;0.00;0.00;0.62;0.00;0.00;0.62;1.50;1.10;;;17.90;26.90;;;;;;2265694;61;20412;-63
2020/12/30 08:13:14;0.00;0.00;0.62;0.00;0.00;0.62;4.27;1.10;;;18.00;27.50;;;;;;2262624;61;20580;-66
2020/12/30 08:16:00;0.00;0.00;0.62;0.00;0.00;0.62;2.00;1.50;;;17.90;26.90;;;;;;2265692;61;20419;-61
2020/12/30 08:18:51;0.00;0.00;0.62;0.00;0.00;0.62;1.77;1.30;;;18.00;27.00;;;;;;2265383;61;20357;-63
2020/12/30 08:21:35;0.00;0.00;0.62;0.00;0.00;0.62;1.50;1.00;;;18.00;27.00;;;;;;2265669;61;20397;-62
2020/12/30 08:24:20;0.00;0.00;0.62;0.00;0.00;0.62;1.40;0.90;;;18.00;26.90;;;;;;2265867;61;20362;-61
2020/12/30 08:27:06;0.00;0.00;0.62;0.00;0.00;0.62;1.70;1.33;;;18.10;27.00;;;;;;2265603;61;20349;-60
2020/12/30 08:29:51;0.00;0.00;0.62;0.00;0.00;0.62;1.80;1.23;;;18.10;27.00;;;;;;2265578;61;20752;-61
2020/12/30 08:32:55;0.00;0.00;0.62;0.00;0.00;0.62;1.67;1.00;;;18.10;27.10;;;;;;2265806;61;20608;-60
2020/12/30 08:35:46;0.00;0.00;0.62;0.00;0.00;0.62;1.63;1.20;;;18.10;27.00;;;;;;2266354;61;20759;-60
2020/12/30 08:38:32;0.00;0.00;0.62;0.00;0.00;0.62;1.57;1.10;;;18.20;27.60;;;;;;2266290;61;20395;-61
2020/12/30 08:41:23;0.00;0.00;0.62;0.00;0.00;0.62;1.20;0.80;;;18.20;27.10;;;;;;2266128;61;20638;-63
2020/12/30 08:44:09;0.00;0.00;0.62;0.00;0.00;0.62;1.60;1.23;;;18.20;27.10;;;;;;2266385;61;20377;-63
2020/12/30 08:46:57;0.00;0.00;0.62;0.00;0.00;0.62;2.00;1.20;;;18.20;27.10;;;;;;2266400;61;20400;-64
2020/12/30 08:49:43;0.00;0.00;0.62;0.00;0.00;0.62;1.93;1.27;;;18.20;27.10;;;;;;2265958;61;20373;-64
2020/12/30 08:52:28;0.00;0.00;0.62;0.00;0.00;0.62;1.60;1.03;;;18.30;27.20;;;;;;2266356;61;20369;-62
2020/12/30 08:55:14;0.00;0.00;0.62;0.00;0.00;0.62;1.83;1.10;;;18.30;27.20;;;;;;2266151;61;20408;-62
2020/12/30 08:57:59;0.00;0.00;0.62;0.00;0.00;0.62;1.90;1.20;;;18.40;27.20;;;;;;2266186;61;20442;-61
2020/12/30 09:00:44;0.00;0.00;0.62;0.00;0.00;0.62;1.30;1.00;;;18.40;27.20;;;;;;2263100;61;20404;-60
2020/12/30 09:03:29;0.00;0.00;0.62;0.00;0.00;0.62;1.63;1.03;;;18.40;27.20;;;;;;2262974;61;20412;-61
2020/12/30 09:06:29;0.00;0.00;0.62;0.00;0.00;0.62;1.63;1.23;;;18.40;27.20;;;;;;2266348;61;20349;-60
2020/12/30 09:09:19;0.00;0.00;0.62;0.00;0.00;0.62;1.50;1.00;;;18.50;27.20;;;;;;2263077;61;20377;-61
2020/12/30 09:12:03;0.00;0.00;0.62;0.00;0.00;0.62;1.63;1.10;;;18.50;27.20;;;;;;2266140;61;20355;-61
2020/12/30 09:14:48;0.00;0.00;0.62;0.00;0.00;0.62;1.30;0.90;;;18.60;27.30;;;;;;2266268;61;20396;-60
2020/12/30 09:17:33;0.00;0.00;0.62;0.00;0.00;0.62;1.60;1.13;;;18.60;27.30;;;;;;2266117;61;20465;-61
2020/12/30 09:20:18;0.00;0.00;0.62;0.00;0.00;0.62;1.60;0.90;;;18.60;27.30;;;;;;2266164;61;20385;-61
2020/12/30 09:23:04;0.00;0.00;0.62;0.00;0.00;0.62;1.50;1.10;;;18.70;27.30;;;;;;2266250;61;20385;-61
2020/12/30 09:25:50;0.00;0.00;0.62;0.00;0.00;0.62;8.20;1.10;;;18.70;27.40;;;;;;2266045;61;20361;-62
2020/12/30 09:28:35;0.00;0.00;0.62;0.00;0.00;0.62;1.87;1.10;;;18.80;27.40;;;;;;2266286;61;20620;-63
2020/12/30 09:31:21;0.00;0.00;0.62;0.00;0.00;0.62;1.30;0.93;;;18.80;27.40;;;;;;2266221;61;20449;-62
2020/12/30 09:34:17;0.00;0.00;0.62;0.00;0.00;0.62;1.40;0.97;;;18.80;27.40;;;;;;2266072;61;20353;-63
2020/12/30 09:37:02;0.00;0.00;0.62;0.00;0.00;0.62;1.20;0.90;;;18.80;27.40;;;;;;2266048;61;20386;-61
2020/12/30 09:40:03;0.00;0.00;0.62;0.00;0.00;0.62;2.07;1.00;;;18.90;27.40;;;;;;2265817;61;20415;-64
2020/12/30 09:42:48;0.00;0.00;0.62;0.00;0.00;0.62;1.27;0.83;;;18.90;27.40;;;;;;2266223;61;20722;-60
2020/12/30 09:45:33;0.00;0.00;0.62;0.00;0.00;0.62;2.20;0.90;;;19.00;27.50;;;;;;2266292;61;20369;-61
2020/12/30 09:48:20;0.00;0.00;0.62;0.00;0.00;0.62;1.57;1.13;;;19.00;27.50;;;;;;2265813;61;20358;-61
2020/12/30 09:51:04;0.00;0.00;0.62;0.00;0.00;0.62;1.70;1.03;;;19.00;27.50;;;;;;2266107;61;20388;-62
2020/12/30 09:53:51;0.00;0.00;0.62;0.00;0.00;0.62;1.43;0.90;;;19.10;27.50;;;;;;2266191;61;20365;-62
2020/12/30 09:56:37;0.00;0.00;0.62;0.00;0.00;0.62;1.60;1.10;;;19.10;27.50;;;;;;2262679;61;20401;-62
2020/12/30 09:59:22;0.00;0.00;0.62;0.00;0.00;0.62;1.47;1.00;;;19.10;27.50;;;;;;2265917;61;20602;-63
2020/12/30 10:02:07;0.00;0.00;0.62;0.00;0.00;0.62;1.63;1.03;;;19.20;27.60;;;;;;2265793;61;20581;-62
2020/12/30 10:04:51;0.00;0.00;0.62;0.00;0.00;0.62;1.50;1.03;;;19.20;27.60;;;;;;2266151;61;20349;-61
2020/12/30 10:07:36;0.00;0.00;0.62;0.00;0.00;0.62;1.30;0.90;;;19.30;27.60;;;;;;2265296;61;20350;-63
2020/12/30 10:10:21;0.00;0.00;0.62;0.00;0.00;0.62;1.30;0.80;;;19.30;27.60;;;;;;2265753;61;20479;-62
2020/12/30 10:13:07;0.00;0.00;0.62;0.00;0.00;0.62;1.50;0.90;;;19.30;27.60;;;;;;2266066;61;20353;-64
2020/12/30 10:15:52;0.00;0.00;0.62;0.00;0.00;0.62;1.60;1.00;;;19.40;27.70;;;;;;2262847;61;20385;-60
2020/12/30 10:18:37;0.00;0.00;0.62;0.00;0.00;0.62;2.07;0.90;;;19.40;27.70;;;;;;2265820;61;20437;-61
2020/12/30 10:21:28;0.00;0.00;0.62;0.00;0.00;0.62;2.23;1.00;;;19.40;27.70;;;;;;2266008;61;20676;-60
2020/12/30 10:24:13;0.00;0.00;0.62;0.00;0.00;0.62;1.43;1.00;;;19.50;27.70;;;;;;2265816;61;20909;-64
2020/12/30 10:26:57;0.00;0.00;0.62;0.00;0.00;0.62;3.10;2.13;;;19.50;27.70;;;;;;2262842;61;20349;-64
2020/12/30 10:29:43;0.00;0.00;0.62;0.00;0.00;0.62;1.90;1.60;;;19.60;27.70;;;;;;2265771;61;20373;-64
2020/12/30 10:32:28;0.00;0.00;0.62;0.00;0.00;0.62;1.77;1.27;;;19.60;27.70;;;;;;2265871;61;20717;-65
2020/12/30 10:35:12;0.00;0.00;0.62;0.00;0.00;0.62;1.93;1.30;;;19.70;27.80;;;;;;2262791;61;20346;-63
2020/12/30 10:37:57;0.00;0.00;0.62;0.00;0.00;0.62;2.53;2.03;;;19.70;27.80;;;;;;2265920;61;20361;-63
2020/12/30 10:40:41;0.00;0.00;0.62;0.00;0.00;0.62;1.90;1.50;;;19.80;27.80;;;;;;2265821;61;20368;-64
2020/12/30 10:43:26;0.00;0.00;0.62;0.00;0.00;0.62;2.43;1.50;;;19.80;27.90;;;;;;2265939;61;20529;-66
2020/12/30 10:46:13;0.00;0.00;0.62;0.00;0.00;0.62;1.90;1.53;;;19.90;27.90;;;;;;2265832;61;20350;-65
2020/12/30 10:48:58;0.00;0.00;0.62;0.00;0.00;0.62;1.63;1.37;;;19.90;27.90;;;;;;2265849;61;20442;-64
2020/12/30 10:51:45;0.00;0.00;0.62;0.00;0.00;0.62;2.30;1.77;;;20.00;27.90;;;;;;2265841;61;20399;-61
2020/12/30 10:54:30;0.00;0.00;0.62;0.00;0.00;0.62;2.13;1.67;;;20.00;27.80;;;;;;2262692;61;20369;-62